Airport View

Enter AWOS ICAO identifier for current METAR.

ex. KFNL

K2D5 191220Z AUTO 03017KT 1 1/4SM BR OVC009 04/04 A2990 RMK AO2 PWINO

19 May 2019 12:20

Frequency: 118.675

Phone: 701-742-3991

Other Area AWOS: KGWR - KABR - KBAC - KJMS

TAF KABR 191120Z 1912/2012 03015G24KT P6SM -RA OVC012 FM191800 02017G24KT P6SM VCSH OVC016 FM192100 01013KT P6SM OVC030 FM200000 03010KT P6SM BKN090